Terminal Aerodrome Forecast
Issued by NWS

Home | Current Version | Previous Version | Graphics & Text | Print | Product List | Glossary On
Versions: 1 2 3 4 5 6 7 8 9 10 11 12 13 14 15 16 17 18 19 20 21
405
FTUS42 KMHX 182321
TAFOAJ
TAF
KOAJ 182321Z 1900/1924 07009KT P6SM SKC
     FM190200 07005KT P6SM BKN040
     FM191200 VRB03KT P6SM OVC015
     FM192000 17006KT P6SM BKN050
      AMD LTD TO CLD VIS AND WIND=

USA.gov is the U.S. government's official web portal to all federal, state and local government web resources and services.